Hauptseite
METAR-TAF:

METAR-TAF

Flughäfen :

Innsbruck, Österreich

Flughafen Innsbruck

Breite: 47-16N, Länge: 011-21E, Höhe: 581 m

Beobachtung

Neuester Wetterbericht von vor 43 Minuten, um 08:50 UTC
Wind 6 kt aus West
Temperatur -2°C
Luftfeuchtigkeit 86%
Luftdruck 1022 hPa
Sichtweite 10 km oder mehr
Leicht bewölkt in der Höhe von 3000 ft

METAR: LOWI 030850Z 27006KT 9999 FEW030 M02/M04 Q1022 NOSIG

Zeit: 10:33 (09:33 UTC)

Prognose

Neuester Wetterbericht von vor 4 Stunden und 18 Minuten, um 05:15 UTC
Gültige Prognose vom 03 um 06 UTC bis 04 um 06 UTC
Wind 3 kt aus West
Sichtweite 10 km oder mehr
Leicht bewölkt in der Höhe von 500 ft
Übergehend zu
vom 03 um 08 UTC bis 03 um 10 UTC
Wind 3 kt aus Ost
Sichtweite 10 km oder mehr
keine Wolken unter 1500 m und keine Kumulonimbus oder Gewitterwolken

TAF: LOWI 030515Z 0306/0406 27003KT 9999 FEW005 TX04/0313Z TNM06/0306Z BECMG 0308/0310 08003KT CAVOK

Wetterbeobachtungen und Prognosen von mehr als 4000 Flughäfen (METAR und TAF Bericht).

Die verfügbaren Stationen werden durch gelbe und rote Markierungen auf der Karte dargestellt.

Führen Sie die Maus auf sie, um den Namen der Station zu sehen.

Darauf klicken, um die Beobachtung von Wetterbeobachtungen und Prognosen zu sehen.

Um die Karte zu ändern : klicken Sie auf den grünen Tasten mit einem schwarzen Kreuz Zum Vergrößern, auf den grünen Button mit einem Gedankenstrich zu verkleinern, oder auf die grünen Pfeile für benachbarte Karten.


METAR-TAF: